| time (UTC) | temp C | wind direction | speed KPH | gust KPH | rain 1hr cm | rain 24hr cm | rain mn cm | humidity % | barometer mb |
| 20260506222705 | 24 | 244 | 9.7 | 12.9 | 0.00 | 0.00 | 0.00 | 53 | 1021.5 |
| 20260506221803 | 24 | 283 | 9.7 | 16.1 | 0.00 | 0.00 | 0.00 | 55 | 1021.6 |
| 20260506220903 | 23 | 338 | 9.7 | 12.9 | 0.00 | 0.00 | 0.00 | 57 | 1021.7 |
| 20260506220007 | 24 | 297 | 9.7 | 14.5 | 0.00 | 0.00 | 0.00 | 53 | 1021.7 |
| 20260506215408 | 25 | 268 | 8.0 | 11.3 | 0.00 | 0.00 | 0.00 | 53 | 1021.9 |
| 20260506214505 | 24 | 303 | 9.7 | 12.9 | 0.00 | 0.00 | 0.00 | 54 | 1021.9 |
| 20260506213606 | 23 | 322 | 6.4 | 9.7 | 0.00 | 0.00 | 0.00 | 55 | 1022.0 |
| 20260506212704 | 23 | 319 | 8.0 | 9.7 | 0.00 | 0.00 | 0.00 | 53 | 1022.1 |
| 20260506211804 | 24 | 322 | 8.0 | 11.3 | 0.00 | 0.00 | 0.00 | 53 | 1022.2 |
| 20260506210904 | 23 | 288 | 8.0 | 9.7 | 0.00 | 0.00 | 0.00 | 54 | 1022.4 |
| 20260506210009 | 23 | 256 | 9.7 | 11.3 | 0.00 | 0.00 | 0.00 | 57 | 1022.4 |
| 20260506205404 | 22 | 311 | 11.3 | 12.9 | 0.00 | 0.00 | 0.00 | 60 | 1022.7 |
| 20260506204505 | 23 | 306 | 9.7 | 11.3 | 0.00 | 0.00 | 0.00 | 57 | 1022.7 |
| 20260506203603 | 23 | 329 | 8.0 | 12.9 | 0.00 | 0.00 | 0.00 | 55 | 1022.9 |
| 20260506202705 | 23 | 303 | 8.0 | 12.9 | 0.00 | 0.00 | 0.00 | 56 | 1022.8 |
| 20260506201803 | 22 | 283 | 9.7 | 14.5 | 0.00 | 0.00 | 0.00 | 59 | 1022.8 |
| 20260506200904 | 22 | 317 | 9.7 | 12.9 | 0.00 | 0.00 | 0.00 | 59 | 1023.2 |
| 20260506200004 | 22 | 281 | 8.0 | 12.9 | 0.00 | 0.00 | 0.00 | 60 | 1023.0 |
| 20260506195614 | 21 | 271 | 9.7 | 12.9 | 0.00 | 0.00 | 0.00 | 62 | 1023.1 |
| 20260506194503 | 21 | 319 | 8.0 | 11.3 | 0.00 | 0.00 | 0.00 | 63 | 1023.2 |
| 20260506193607 | 21 | 279 | 8.0 | 11.3 | 0.00 | 0.00 | 0.00 | 62 | 1023.3 |
| 20260506192933 | 22 | 257 | 9.7 | 11.3 | 0.00 | 0.00 | 0.00 | 63 | 1023.3 |
| 20260506191804 | 21 | 328 | 6.4 | 11.3 | 0.00 | 0.00 | 0.00 | 64 | 1023.5 |
| 20260506190903 | 22 | 317 | 9.7 | 12.9 | 0.00 | 0.00 | 0.00 | 64 | 1023.9 |
| 20260506190003 | 21 | 306 | 11.3 | 14.5 | 0.00 | 0.00 | 0.00 | 67 | 1023.7 |
| 20260506185403 | 22 | 317 | 11.3 | 16.1 | 0.00 | 0.00 | 0.00 | 65 | 1023.7 |
| 20260506184505 | 21 | 334 | 9.7 | 16.1 | 0.00 | 0.00 | 0.00 | 67 | 1023.7 |
| 20260506183815 | 20 | 328 | 9.7 | 17.7 | 0.00 | 0.00 | 0.00 | 67 | 1023.8 |
| 20260506182914 | 20 | 311 | 9.7 | 14.5 | 0.00 | 0.00 | 0.00 | 67 | 1023.7 |
| 20260506181804 | 20 | 339 | 9.7 | 14.5 | 0.00 | 0.00 | 0.00 | 67 | 1024.0 |
| 20260506180905 | 21 | 337 | 8.0 | 12.9 | 0.00 | 0.00 | 0.00 | 67 | 1024.0 |
| 20260506180214 | 20 | 334 | 9.7 | 12.9 | 0.00 | 0.00 | 0.00 | 70 | 1024.0 |
| 20260506175404 | 20 | 335 | 8.0 | 9.7 | 0.00 | 0.00 | 0.00 | 69 | 1024.0 |
| 20260506174504 | 19 | 325 | 9.7 | 12.9 | 0.00 | 0.00 | 0.00 | 72 | 1023.8 |
| 20260506173603 | 19 | 344 | 8.0 | 12.9 | 0.00 | 0.00 | 0.00 | 71 | 1024.0 |
| 20260506172703 | 19 | 325 | 8.0 | 12.9 | 0.00 | 0.00 | 0.00 | 72 | 1024.1 |
| 20260506171804 | 18 | 325 | 9.7 | 14.5 | 0.00 | 0.00 | 0.00 | 74 | 1024.0 |
| 20260506171115 | 18 | 353 | 8.0 | 9.7 | 0.00 | 0.00 | 0.00 | 72 | 1024.0 |
| 20260506170007 | 18 | 336 | 8.0 | 11.3 | 0.00 | 0.00 | 0.00 | 75 | 1024.0 |
| 20260506165403 | 18 | 335 | 8.0 | 12.9 | 0.00 | 0.00 | 0.00 | 76 | 1024.0 |
| 20260506164505 | 17 | 338 | 9.7 | 14.5 | 0.00 | 0.00 | 0.00 | 76 | 1024.1 |
| 20260506163603 | 17 | 337 | 11.3 | 14.5 | 0.00 | 0.00 | 0.00 | 78 | 1024.0 |
| 20260506162703 | 17 | 341 | 8.0 | 12.9 | 0.00 | 0.00 | 0.00 | 78 | 1024.2 |
| 20260506162013 | 17 | 351 | 8.0 | 9.7 | 0.00 | 0.00 | 0.00 | 75 | 1024.1 |
| 20260506160904 | 16 | 332 | 9.7 | 11.3 | 0.00 | 0.00 | 0.00 | 79 | 1024.3 |
| 20260506160007 | 17 | 340 | 8.0 | 12.9 | 0.00 | 0.00 | 0.00 | 79 | 1024.2 |
| 20260506155404 | 16 | 333 | 11.3 | 12.9 | 0.00 | 0.00 | 0.00 | 80 | 1024.1 |
| 20260506154507 | 15 | 332 | 11.3 | 12.9 | 0.00 | 0.00 | 0.00 | 82 | 1023.9 |
| 20260506153603 | 16 | 334 | 8.0 | 9.7 | 0.00 | 0.00 | 0.00 | 81 | 1024.3 |
| 20260506152703 | 15 | 325 | 9.7 | 12.9 | 0.00 | 0.00 | 0.00 | 84 | 1024.1 |
| 20260506151805 | 15 | 343 | 8.0 | 12.9 | 0.00 | 0.00 | 0.00 | 84 | 1024.1 |
| 20260506151114 | 15 | 339 | 8.0 | 11.3 | 0.00 | 0.00 | 0.00 | 85 | 1024.2 |
| 20260506150005 | 15 | 333 | 8.0 | 12.9 | 0.00 | 0.00 | 0.00 | 86 | 1024.0 |
| 20260506145404 | 15 | 335 | 8.0 | 11.3 | 0.00 | 0.00 | 0.00 | 88 | 1024.5 |
| 20260506144505 | 14 | 349 | 6.4 | 11.3 | 0.00 | 0.00 | 0.00 | 89 | 1024.2 |
| 20260506143603 | 14 | 347 | 6.4 | 11.3 | 0.00 | 0.00 | 0.00 | 91 | 1024.1 |
| 20260506142703 | 13 | 347 | 4.8 | 6.4 | 0.00 | 0.00 | 0.00 | 92 | 1024.1 |
| 20260506141804 | 13 | 347 | 4.8 | 4.8 | 0.00 | 0.00 | 0.00 | 93 | 1024.1 |
| 20260506140904 | 13 | 351 | 3.2 | 4.8 | 0.00 | 0.00 | 0.00 | 93 | 1023.9 |
| 20260506140007 | 13 | 357 | 1.6 | 1.6 | 0.00 | 0.00 | 0.00 | 94 | 1023.6 |
| 20260506135404 | 12 | 350 | 1.6 | 1.6 | 0.00 | 0.00 | 0.00 | 96 | 1023.8 |
| 20260506134505 | 12 | 342 | 0.0 | 1.6 | 0.00 | 0.00 | 0.00 | 97 | 1023.7 |
| 20260506133604 | 12 | 340 | 0.0 | 1.6 | 0.00 | 0.00 | 0.00 | 98 | 1023.5 |
| 20260506132704 | 11 | 0 | 0.0 | 0.0 | 0.00 | 0.00 | 0.00 | 98 | 1023.4 |
| 20260506132014 | 11 | 331 | 0.0 | 1.6 | 0.00 | 0.00 | 0.00 | 98 | 1023.5 |
| 20260506131115 | 12 | 324 | 1.6 | 3.2 | 0.00 | 0.00 | 0.00 | 98 | 1023.1 |
| 20260506130004 | 12 | 326 | 3.2 | 3.2 | 0.00 | 0.00 | 0.00 | 97 | 1023.4 |
| 20260506125405 | 12 | 328 | 1.6 | 3.2 | 0.00 | 0.00 | 0.00 | 97 | 1023.2 |
| 20260506124713 | 12 | 331 | 1.6 | 3.2 | 0.00 | 0.00 | 0.00 | 98 | 1023.2 |
| 20260506123603 | 12 | 331 | 1.6 | 3.2 | 0.00 | 0.00 | 0.00 | 97 | 1023.3 |
| 20260506122703 | 12 | 321 | 3.2 | 4.8 | 0.00 | 0.00 | 0.00 | 97 | 1023.1 |
| 20260506121804 | 12 | 329 | 3.2 | 4.8 | 0.00 | 0.00 | 0.00 | 97 | 1023.3 |
| 20260506120905 | 12 | 321 | 3.2 | 4.8 | 0.00 | 0.00 | 0.00 | 97 | 1023.3 |
| 20260506120004 | 11 | 329 | 3.2 | 4.8 | 0.00 | 0.00 | 0.00 | 97 | 1023.0 |
| 20260506115403 | 11 | 327 | 4.8 | 9.7 | 0.00 | 0.00 | 0.00 | 97 | 1022.9 |
| 20260506114713 | 11 | 325 | 4.8 | 9.7 | 0.00 | 0.00 | 0.00 | 97 | 1023.0 |
| 20260506113603 | 11 | 334 | 3.2 | 4.8 | 0.00 | 0.00 | 0.00 | 98 | 1022.8 |
| 20260506112703 | 11 | 342 | 0.0 | 1.6 | 0.00 | 0.00 | 0.00 | 98 | 1023.0 |
| 20260506111803 | 11 | 350 | 0.0 | 1.6 | 0.00 | 0.00 | 0.00 | 98 | 1023.2 |
| 20260506110904 | 11 | 337 | 1.6 | 3.2 | 0.00 | 0.00 | 0.00 | 98 | 1023.0 |
| 20260506110214 | 11 | 337 | 0.0 | 3.2 | 0.00 | 0.00 | 0.00 | 98 | 1022.8 |
| 20260506105405 | 11 | 357 | 0.0 | 3.2 | 0.00 | 0.00 | 0.00 | 98 | 1022.9 |
| 20260506104504 | 11 | 338 | 1.6 | 3.2 | 0.00 | 0.00 | 0.00 | 98 | 1022.8 |
| 20260506103604 | 11 | 0 | 0.0 | 0.0 | 0.00 | 0.00 | 0.00 | 98 | 1023.1 |
| 20260506102703 | 11 | 331 | 1.6 | 1.6 | 0.00 | 0.00 | 0.00 | 97 | 1022.7 |
| 20260506101804 | 11 | 337 | 1.6 | 3.2 | 0.00 | 0.00 | 0.00 | 96 | 1022.7 |
| 20260506101114 | 11 | 335 | 3.2 | 4.8 | 0.00 | 0.00 | 0.00 | 96 | 1022.6 |
| 20260506100004 | 11 | 339 | 6.4 | 9.7 | 0.00 | 0.00 | 0.00 | 96 | 1022.3 |
| 20260506095403 | 11 | 337 | 6.4 | 6.4 | 0.00 | 0.00 | 0.00 | 96 | 1022.4 |
| 20260506094504 | 11 | 330 | 6.4 | 9.7 | 0.00 | 0.00 | 0.00 | 96 | 1022.3 |
| 20260506093815 | 11 | 330 | 3.2 | 4.8 | 0.00 | 0.00 | 0.00 | 96 | 1022.2 |
| 20260506092704 | 11 | 336 | 6.4 | 9.7 | 0.00 | 0.00 | 0.00 | 96 | 1022.2 |
| 20260506091804 | 11 | 329 | 1.6 | 4.8 | 0.00 | 0.00 | 0.00 | 97 | 1022.0 |
| 20260506090903 | 11 | 0 | 0.0 | 0.0 | 0.00 | 0.00 | 0.00 | 97 | 1022.2 |
| 20260506090004 | 11 | 0 | 0.0 | 0.0 | 0.00 | 0.00 | 0.00 | 97 | 1022.1 |
| 20260506085403 | 11 | 0 | 0.0 | 0.0 | 0.00 | 0.00 | 0.00 | 96 | 1022.4 |
| 20260506084507 | 11 | 322 | 1.6 | 4.8 | 0.00 | 0.00 | 0.00 | 96 | 1022.3 |
| 20260506083603 | 11 | 326 | 1.6 | 3.2 | 0.00 | 0.03 | 0.00 | 96 | 1022.2 |
| 20260506082703 | 11 | 331 | 1.6 | 1.6 | 0.00 | 0.03 | 0.00 | 97 | 1022.3 |
| 20260506081804 | 11 | 329 | 0.0 | 1.6 | 0.00 | 0.03 | 0.00 | 97 | 1022.6 |
| 20260506081113 | 11 | 0 | 0.0 | 0.0 | 0.00 | 0.03 | 0.00 | 97 | 1023.0 |
| 20260506072704 | 12 | 323 | 4.8 | 4.8 | 0.00 | 0.10 | 0.00 | 93 | 1022.5 |
| 20260506071803 | 12 | 321 | 4.8 | 4.8 | 0.00 | 0.13 | 0.00 | 93 | 1022.2 |
| 20260506070903 | 12 | 334 | 3.2 | 4.8 | 0.00 | 0.13 | 0.00 | 93 | 1022.1 |
| 20260506070115 | 12 | 333 | 1.6 | 4.8 | 0.00 | 0.13 | 0.00 | 93 | 1022.1 |
| 20260506061803 | 12 | 329 | 4.8 | 6.4 | 0.00 | 0.13 | 0.13 | 91 | 1021.5 |
| 20260506060906 | 12 | 333 | 3.2 | 4.8 | 0.00 | 0.13 | 0.13 | 91 | 1021.5 |
| 20260506050907 | 13 | 0 | 0.0 | 0.0 | 0.00 | 0.13 | 0.13 | 91 | 1020.9 |
| 20260506044503 | 14 | 344 | 0.0 | 1.6 | 0.00 | 0.13 | 0.13 | 89 | 1020.7 |
| 20260506043815 | 14 | 328 | 1.6 | 1.6 | 0.00 | 0.13 | 0.13 | 88 | 1020.7 |
| 20260506042704 | 14 | 339 | 0.0 | 1.6 | 0.00 | 0.13 | 0.13 | 88 | 1020.4 |
| 20260506042014 | 15 | 340 | 1.6 | 3.2 | 0.00 | 0.13 | 0.13 | 87 | 1020.5 |
| 20260506040903 | 15 | 335 | 3.2 | 3.2 | 0.00 | 0.13 | 0.13 | 87 | 1020.0 |
| 20260506040006 | 15 | 334 | 1.6 | 3.2 | 0.00 | 0.13 | 0.13 | 87 | 1020.1 |
| 20260506035403 | 15 | 336 | 1.6 | 1.6 | 0.00 | 0.13 | 0.13 | 87 | 1020.1 |
| 20260506034505 | 15 | 329 | 1.6 | 4.8 | 0.00 | 0.13 | 0.13 | 86 | 1020.0 |
| 20260506033604 | 15 | 326 | 4.8 | 4.8 | 0.00 | 0.13 | 0.13 | 86 | 1019.9 |
| 20260506032914 | 15 | 330 | 3.2 | 4.8 | 0.00 | 0.13 | 0.13 | 86 | 1019.8 |
| 20260506032015 | 15 | 331 | 3.2 | 4.8 | 0.00 | 0.13 | 0.13 | 85 | 1019.6 |
| 20260506030909 | 15 | 334 | 1.6 | 3.2 | 0.00 | 0.13 | 0.13 | 85 | 1019.5 |
| 20260506030007 | 16 | 333 | 3.2 | 3.2 | 0.00 | 0.13 | 0.13 | 84 | 1019.5 |
| 20260506025404 | 16 | 337 | 3.2 | 4.8 | 0.00 | 0.13 | 0.13 | 83 | 1019.7 |
| 20260506024715 | 16 | 339 | 4.8 | 4.8 | 0.00 | 0.13 | 0.13 | 82 | 1019.6 |
| 20260506023814 | 16 | 327 | 3.2 | 3.2 | 0.00 | 0.13 | 0.13 | 80 | 1019.4 |
| 20260506022705 | 17 | 328 | 4.8 | 4.8 | 0.00 | 0.13 | 0.13 | 79 | 1019.5 |
| 20260506021804 | 17 | 326 | 4.8 | 4.8 | 0.00 | 0.13 | 0.13 | 78 | 1019.1 |
| 20260506020907 | 17 | 312 | 4.8 | 6.4 | 0.00 | 0.13 | 0.13 | 77 | 1019.2 |
| 20260506020003 | 17 | 292 | 6.4 | 9.7 | 0.00 | 0.13 | 0.13 | 76 | 1019.1 |
| 20260506015404 | 17 | 271 | 8.0 | 11.3 | 0.00 | 0.13 | 0.13 | 77 | 1019.0 |
| 20260506014503 | 17 | 243 | 8.0 | 11.3 | 0.00 | 0.13 | 0.13 | 77 | 1019.1 |
| 20260506013612 | 17 | 302 | 6.4 | 6.4 | 0.00 | 0.13 | 0.13 | 76 | 1019.1 |
| 20260506012704 | 17 | 294 | 8.0 | 11.3 | 0.00 | 0.13 | 0.13 | 76 | 1019.1 |
| 20260506011803 | 17 | 245 | 8.0 | 11.3 | 0.00 | 0.13 | 0.13 | 77 | 1019.0 |
| 20260506010905 | 18 | 283 | 6.4 | 9.7 | 0.00 | 0.13 | 0.13 | 75 | 1019.3 |
| 20260506010007 | 18 | 274 | 6.4 | 9.7 | 0.00 | 0.13 | 0.13 | 73 | 1019.3 |
| 20260506005408 | 18 | 269 | 6.4 | 9.7 | 0.00 | 0.13 | 0.13 | 74 | 1019.2 |
| 20260506004509 | 18 | 275 | 4.8 | 6.4 | 0.00 | 0.13 | 0.13 | 73 | 1019.4 |
| 20260506003604 | 18 | 296 | 6.4 | 6.4 | 0.00 | 0.13 | 0.13 | 73 | 1019.4 |
| 20260506002912 | 18 | 302 | 3.2 | 4.8 | 0.00 | 0.13 | 0.13 | 75 | 1019.4 |
| 20260506002014 | 17 | 316 | 4.8 | 4.8 | 0.00 | 0.13 | 0.13 | 76 | 1019.1 |
| 20260506000904 | 17 | 272 | 4.8 | 6.4 | 0.00 | 0.13 | 0.13 | 74 | 1019.1 |
| 20260506000215 | 17 | 288 | 4.8 | 9.7 | 0.00 | 0.13 | 0.13 | 74 | 1019.1 |
| 20260505235404 | 17 | 271 | 6.4 | 9.7 | 0.00 | 0.13 | 0.13 | 76 | 1019.1 |
| 20260505234714 | 17 | 320 | 4.8 | 4.8 | 0.00 | 0.13 | 0.13 | 75 | 1019.0 |
| 20260505233604 | 17 | 320 | 6.4 | 9.7 | 0.00 | 0.13 | 0.13 | 75 | 1019.0 |
| 20260505232704 | 18 | 298 | 8.0 | 11.3 | 0.00 | 0.13 | 0.13 | 73 | 1019.0 |
| 20260505231804 | 18 | 320 | 6.4 | 6.4 | 0.00 | 0.13 | 0.13 | 75 | 1019.1 |
| 20260505231115 | 17 | 293 | 8.0 | 11.3 | 0.00 | 0.13 | 0.13 | 76 | 1019.2 |
| 20260505230006 | 17 | 290 | 6.4 | 9.7 | 0.00 | 0.13 | 0.13 | 77 | 1019.0 |
| 20260505225403 | 16 | 311 | 8.0 | 11.3 | 0.00 | 0.13 | 0.13 | 79 | 1019.1 |
| 20260505224504 | 17 | 288 | 8.0 | 11.3 | 0.00 | 0.13 | 0.13 | 78 | 1019.3 |
| 20260505223603 | 17 | 302 | 8.0 | 11.3 | 0.00 | 0.13 | 0.13 | 77 | 1019.2 |